createdAt,value
2017-07-28T00:00:07.110Z,91.1
2017-07-28T00:01:06.821Z,91.1
2017-07-28T00:02:05.784Z,91.1
2017-07-28T00:03:05.133Z,91.1
2017-07-28T00:04:04.221Z,91.1
2017-07-28T00:05:03.806Z,91.3
2017-07-28T00:05:34.221Z,91.3
2017-07-28T00:07:02.370Z,91.1
2017-07-28T00:08:01.573Z,91
2017-07-28T00:09:00.777Z,91.1
2017-07-28T00:09:59.872Z,91
2017-07-28T00:10:59.448Z,90.8
2017-07-28T00:11:58.650Z,90.8
2017-07-28T00:12:57.727Z,90.8
2017-07-28T00:13:57.436Z,90.7
2017-07-28T00:14:56.651Z,90.7
2017-07-28T00:15:55.882Z,90.8
2017-07-28T00:16:54.953Z,91.1
2017-07-28T00:17:54.158Z,91.3
2017-07-28T00:18:53.856Z,91.4
2017-07-28T00:19:53.055Z,91.4
2017-07-28T00:20:52.258Z,91.5
2017-07-28T00:21:51.469Z,91.6
2017-07-28T00:22:21.876Z,91.6
2017-07-28T00:22:52.275Z,91.7
2017-07-28T00:23:22.669Z,91.7
2017-07-28T00:23:53.189Z,91.8
2017-07-28T00:24:23.579Z,91.8
2017-07-28T00:24:54.095Z,91.9
2017-07-28T00:25:24.600Z,91.9
2017-07-28T00:25:55.106Z,91.8
2017-07-28T00:26:25.620Z,91.8
2017-07-28T00:27:46.965Z,92
2017-07-28T00:28:46.440Z,92
2017-07-28T00:29:45.657Z,92
2017-07-28T00:30:44.865Z,92.2
2017-07-28T00:31:44.480Z,92.3
2017-07-28T00:32:43.681Z,92.4
2017-07-28T00:33:42.886Z,92.5
2017-07-28T00:34:42.222Z,92.4
2017-07-28T00:35:41.313Z,92.4
2017-07-28T00:37:39.899Z,92.4
2017-07-28T00:38:39.100Z,92.3
2017-07-28T00:40:37.579Z,92.2
2017-07-28T00:41:36.782Z,92.3
2017-07-28T00:42:36.486Z,92.4
2017-07-28T00:43:35.605Z,92.3
2017-07-28T00:44:34.801Z,92.2
2017-07-28T00:45:33.889Z,92.3
2017-07-28T00:47:32.489Z,92.3
2017-07-28T00:48:32.200Z,92.3
2017-07-28T00:49:31.288Z,92.4
2017-07-28T00:50:30.264Z,92.3
2017-07-28T00:51:29.719Z,92.3
2017-07-28T00:52:29.299Z,92.4
2017-07-28T00:54:27.770Z,92.1
2017-07-28T00:55:26.862Z,92.1
2017-07-28T00:56:25.949Z,92.1
2017-07-28T00:57:25.543Z,92
2017-07-28T00:58:24.744Z,92
2017-07-28T00:59:23.953Z,92.1
2017-07-28T01:00:22.918Z,92.1
2017-07-28T01:01:22.510Z,92.2
2017-07-28T01:02:21.714Z,92.3
2017-07-28T01:03:20.808Z,92.4
2017-07-28T01:04:20.405Z,92.4
2017-07-28T01:05:19.604Z,92.4
2017-07-28T01:06:18.814Z,92.5
2017-07-28T01:07:18.010Z,92.4
2017-07-28T01:08:17.606Z,92.2
2017-07-28T01:09:16.684Z,92.2
2017-07-28T01:10:15.893Z,92.2
2017-07-28T01:11:15.098Z,92.3
2017-07-28T01:12:14.297Z,92.5
2017-07-28T01:13:13.889Z,92.6
2017-07-28T01:14:12.849Z,92.6
2017-07-28T01:15:12.431Z,92.6
2017-07-28T01:16:11.518Z,92.6
2017-07-28T01:16:42.034Z,92.6
2017-07-28T01:17:12.548Z,92.5
2017-07-28T01:18:09.991Z,92.5
2017-07-28T01:19:09.582Z,92.5
2017-07-28T01:20:08.663Z,92.4
2017-07-28T01:21:07.866Z,92.4
2017-07-28T01:21:38.376Z,92.4
2017-07-28T01:23:06.157Z,92.3
2017-07-28T01:24:05.751Z,92.3
2017-07-28T01:25:04.843Z,92.4
2017-07-28T01:26:04.426Z,92.5
2017-07-28T01:27:03.378Z,92.6
2017-07-28T01:28:02.849Z,92.6
2017-07-28T01:29:02.049Z,92.7
2017-07-28T01:30:01.143Z,92.7
2017-07-28T01:31:00.733Z,92.6
2017-07-28T01:31:31.138Z,92.6
2017-07-28T01:32:01.656Z,92.6
2017-07-28T01:32:31.939Z,92.6
2017-07-28T01:33:02.336Z,92.6
2017-07-28T01:33:58.400Z,92.6
2017-07-28T01:34:57.596Z,92.5
2017-07-28T01:35:57.187Z,92.6
2017-07-28T01:36:56.399Z,92.6
2017-07-28T01:37:55.613Z,92.6
2017-07-28T01:38:54.691Z,92.6
2017-07-28T01:39:53.871Z,92.6
2017-07-28T01:40:53.446Z,92.6
2017-07-28T01:41:52.653Z,92.7
2017-07-28T01:43:51.265Z,92.6
2017-07-28T01:44:50.469Z,92.5
2017-07-28T01:45:49.559Z,92.5
2017-07-28T01:46:48.756Z,92.5
2017-07-28T01:47:48.460Z,92.5
2017-07-28T01:48:47.659Z,92.4
2017-07-28T01:51:45.135Z,92.3
2017-07-28T02:01:38.112Z,92.4
2017-07-28T02:06:34.139Z,92.2
2017-07-28T02:07:33.842Z,92.3
2017-07-28T02:10:31.201Z,92.3
2017-07-28T02:11:30.902Z,92.3
2017-07-28T02:12:01.066Z,92.3
2017-07-28T02:12:31.454Z,92.4
2017-07-28T02:13:01.865Z,92.4
2017-07-28T02:13:32.641Z,92.4
2017-07-28T02:14:03.163Z,92.4
2017-07-28T02:14:33.668Z,92.4
2017-07-28T02:15:04.078Z,92.4
2017-07-28T02:17:26.317Z,92.3
2017-07-28T02:19:24.905Z,92.3
2017-07-28T02:22:22.895Z,92.3
2017-07-28T02:23:22.095Z,92.4
2017-07-28T02:24:21.300Z,92.5
2017-07-28T02:24:51.816Z,92.5
2017-07-28T02:25:22.325Z,92.5
2017-07-28T02:25:52.826Z,92.5
2017-07-28T02:27:18.964Z,92.6
2017-07-28T02:29:17.425Z,92.6
2017-07-28T02:30:17.018Z,92.6
2017-07-28T02:32:15.387Z,92.6
2017-07-28T02:34:13.981Z,92.6
2017-07-28T02:37:11.454Z,92.6
2017-07-28T02:38:11.156Z,92.5
2017-07-28T02:39:10.352Z,92.5
2017-07-28T02:41:08.922Z,92.6
2017-07-28T02:42:08.116Z,92.6
2017-07-28T02:42:38.507Z,92.6
2017-07-28T02:44:06.281Z,92.6
2017-07-28T02:45:05.750Z,92.6
2017-07-28T02:46:05.099Z,92.6
2017-07-28T02:47:04.167Z,92.5
2017-07-28T02:48:03.878Z,92.6
2017-07-28T02:49:03.069Z,92.6
2017-07-28T02:50:02.157Z,92.5
2017-07-28T02:51:01.359Z,92.5
2017-07-28T02:52:00.553Z,92.5
2017-07-28T02:53:59.401Z,92.4
2017-07-28T02:54:58.605Z,92.3
2017-07-28T02:57:56.580Z,92.2
2017-07-28T02:58:55.666Z,92.3
2017-07-28T02:59:54.623Z,92.4
2017-07-28T03:01:53.592Z,92.5
2017-07-28T03:03:52.068Z,92.8
2017-07-28T03:04:51.148Z,92.8
2017-07-28T03:05:21.662Z,92.8
2017-07-28T03:06:49.549Z,92.9
2017-07-28T03:07:49.271Z,93
2017-07-28T03:08:48.469Z,93
2017-07-28T03:10:46.935Z,93.1
2017-07-28T03:11:46.140Z,93.2
2017-07-28T03:12:45.346Z,93.3
2017-07-28T03:13:44.531Z,93.3
2017-07-28T03:14:43.736Z,93.5
2017-07-28T03:15:43.443Z,93.5
2017-07-28T03:16:42.650Z,93.5
2017-07-28T03:17:41.729Z,93.6
2017-07-28T03:18:40.931Z,93.7
2017-07-28T03:19:40.126Z,93.7
2017-07-28T03:20:39.317Z,93.8
2017-07-28T03:22:37.912Z,93.9
2017-07-28T03:23:37.486Z,94
2017-07-28T03:24:36.565Z,94.1
2017-07-28T03:25:35.763Z,94.1
2017-07-28T03:26:34.953Z,94.1
2017-07-28T03:27:34.147Z,94.1
2017-07-28T03:28:33.848Z,94.2
2017-07-28T03:29:32.814Z,94.2
2017-07-28T03:30:32.051Z,94.2
2017-07-28T03:31:31.007Z,94.2
2017-07-28T03:32:30.704Z,94.2
2017-07-28T03:33:29.912Z,94.2
2017-07-28T03:35:28.494Z,94.2
2017-07-28T03:36:27.580Z,94.2
2017-07-28T03:37:27.290Z,94.2
2017-07-28T03:38:26.365Z,94.2
2017-07-28T03:39:25.452Z,94.2
2017-07-28T03:40:24.534Z,94.3
2017-07-28T03:41:24.121Z,94.3
2017-07-28T03:43:22.617Z,94.3
2017-07-28T03:44:21.811Z,94.3
2017-07-28T03:45:20.889Z,94.4
2017-07-28T03:46:20.582Z,94.4
2017-07-28T03:47:19.661Z,94.4
2017-07-28T03:48:18.849Z,94.5
2017-07-28T03:49:18.044Z,94.5
2017-07-28T03:50:17.233Z,94.5
2017-07-28T03:50:47.748Z,94.5
2017-07-28T03:51:18.261Z,94.5
2017-07-28T03:51:48.655Z,94.5
2017-07-28T03:53:15.036Z,94.5
2017-07-28T03:54:14.723Z,94.5
2017-07-28T03:55:13.674Z,94.5
2017-07-28T03:56:12.876Z,94.6
2017-07-28T03:57:11.947Z,94.6
2017-07-28T03:58:11.411Z,94.6
2017-07-28T03:59:10.605Z,94.6
2017-07-28T04:00:10.174Z,94.6
2017-07-28T04:00:40.452Z,94.6
2017-07-28T04:02:08.836Z,94.6
2017-07-28T04:03:08.037Z,94.6
2017-07-28T04:04:07.306Z,94.6
2017-07-28T04:05:06.499Z,94.6
2017-07-28T04:06:05.576Z,94.5
2017-07-28T04:07:04.769Z,94.6
2017-07-28T04:08:04.232Z,94.6
2017-07-28T04:09:03.299Z,94.6
2017-07-28T04:10:02.499Z,94.6
2017-07-28T04:11:01.960Z,94.6
2017-07-28T04:12:01.055Z,94.6
2017-07-28T04:13:00.248Z,94.6
2017-07-28T04:13:30.655Z,94.6
2017-07-28T04:14:01.159Z,94.5
2017-07-28T04:14:31.659Z,94.5
2017-07-28T04:15:02.163Z,94.5
2017-07-28T04:15:32.559Z,94.5
2017-07-28T04:16:03.064Z,94.5
2017-07-28T04:16:57.727Z,94.4
2017-07-28T04:17:56.910Z,94.3
2017-07-28T04:18:55.988Z,94.3
2017-07-28T04:19:55.192Z,94.3
2017-07-28T04:20:54.394Z,94.2
2017-07-28T04:21:53.977Z,94.2
2017-07-28T04:22:53.055Z,94.2
2017-07-28T04:24:51.643Z,94.3
2017-07-28T04:30:47.284Z,93.8
2017-07-28T04:31:17.792Z,93.8
2017-07-28T04:31:48.301Z,93.7
2017-07-28T04:32:18.801Z,93.7
2017-07-28T04:32:49.311Z,93.3
2017-07-28T04:33:19.816Z,93.3
2017-07-28T04:34:44.177Z,92.8
2017-07-28T04:35:43.368Z,92.8
2017-07-28T04:36:42.569Z,92.8
2017-07-28T04:37:42.159Z,92.8
2017-07-28T04:38:41.241Z,92.4
2017-07-28T04:39:40.309Z,92.4
2017-07-28T04:40:39.501Z,92.4
2017-07-28T04:41:39.201Z,92.5
2017-07-28T04:42:38.397Z,92.4
2017-07-28T04:43:37.486Z,92.4
2017-07-28T04:44:36.570Z,92.5
2017-07-28T04:45:35.766Z,92.5
2017-07-28T04:48:33.626Z,92
2017-07-28T04:49:32.816Z,91.3
2017-07-28T04:50:32.388Z,91
2017-07-28T04:51:31.572Z,91
2017-07-28T04:52:30.644Z,90.6
2017-07-28T04:53:30.106Z,90.6
2017-07-28T04:54:29.195Z,90.6
2017-07-28T04:54:59.448Z,90.6
2017-07-28T04:55:29.834Z,90.6
2017-07-28T04:56:27.902Z,89.9
2017-07-28T04:57:27.094Z,89.8
2017-07-28T04:58:26.171Z,89.5
2017-07-28T04:59:25.370Z,89.3
2017-07-28T05:00:25.083Z,89.5
2017-07-28T05:01:24.272Z,89
2017-07-28T05:02:23.364Z,88.7
2017-07-28T05:03:22.439Z,88.3
2017-07-28T05:04:21.633Z,87.7
2017-07-28T05:05:21.214Z,87.5
2017-07-28T05:06:20.410Z,87.6
2017-07-28T05:07:19.608Z,87.1
2017-07-28T05:08:18.683Z,87.1
2017-07-28T05:09:18.263Z,87.2
2017-07-28T05:10:17.462Z,86.3
2017-07-28T05:11:16.668Z,86.1
2017-07-28T05:12:15.853Z,86.1
2017-07-28T05:13:15.039Z,85.9
2017-07-28T05:14:14.610Z,85.5
2017-07-28T05:15:13.689Z,85.5
2017-07-28T05:16:12.777Z,85.1
2017-07-28T05:17:11.977Z,84.7
2017-07-28T05:18:11.554Z,84.9
2017-07-28T05:19:10.740Z,84.9
2017-07-28T05:20:09.948Z,84.5
2017-07-28T05:21:09.015Z,85.2
2017-07-28T05:22:08.598Z,84.5
2017-07-28T05:23:07.561Z,84.4
2017-07-28T05:24:06.779Z,83.8
2017-07-28T05:24:37.181Z,83.8
2017-07-28T05:25:07.569Z,83.5
2017-07-28T05:26:05.531Z,83.2
2017-07-28T05:27:04.743Z,83.2
2017-07-28T05:28:03.818Z,83.8
2017-07-28T05:29:03.112Z,83.8
2017-07-28T05:30:02.609Z,83.8
2017-07-28T05:31:01.701Z,83.7
2017-07-28T05:32:00.893Z,84.2
2017-07-28T05:33:00.479Z,84.2
2017-07-28T05:33:59.683Z,84.5
2017-07-28T05:34:58.892Z,84.6
2017-07-28T05:35:58.091Z,85.5
2017-07-28T05:36:57.278Z,85.7
2017-07-28T05:37:56.418Z,85.7
2017-07-28T05:38:56.009Z,85.8
2017-07-28T05:39:55.207Z,85.9
2017-07-28T05:40:25.716Z,85.9
2017-07-28T05:40:56.227Z,85.7
2017-07-28T05:41:26.728Z,85.7
2017-07-28T05:41:57.124Z,85.9
2017-07-28T05:42:53.057Z,86
2017-07-28T05:43:52.022Z,86.1
2017-07-28T05:45:50.608Z,86.3
2017-07-28T05:46:49.807Z,86.3
2017-07-28T05:47:49.498Z,86.3
2017-07-28T05:48:48.354Z,86.8
2017-07-28T05:49:47.814Z,87
2017-07-28T05:50:46.918Z,87.1
2017-07-28T05:51:45.989Z,87.2
2017-07-28T05:52:45.575Z,87.5
2017-07-28T05:53:44.768Z,87.6
2017-07-28T05:55:43.344Z,87.2
2017-07-28T05:56:42.417Z,87.1
2017-07-28T05:57:42.270Z,86.9
2017-07-28T05:58:41.340Z,86.9
2017-07-28T05:59:40.551Z,87.1
2017-07-28T06:00:39.742Z,87
2017-07-28T06:01:38.827Z,87
2017-07-28T06:02:38.024Z,87.2
2017-07-28T06:03:37.631Z,87.2
2017-07-28T06:04:36.833Z,87.2
2017-07-28T06:05:35.909Z,87.2
2017-07-28T06:06:34.982Z,87
2017-07-28T06:07:34.446Z,86.9
2017-07-28T06:08:34.024Z,86.5
2017-07-28T06:09:33.220Z,86.3
2017-07-28T06:10:32.428Z,86.6
2017-07-28T06:11:31.277Z,86.5
2017-07-28T06:12:30.744Z,86.4
2017-07-28T06:13:30.218Z,86.6
2017-07-28T06:14:29.295Z,86.7
2017-07-28T06:15:28.759Z,86.5
2017-07-28T06:16:27.951Z,86.6
2017-07-28T06:17:27.157Z,86.6
2017-07-28T06:18:26.727Z,86.2
2017-07-28T06:19:25.691Z,85.3
2017-07-28T06:19:56.066Z,85.3
2017-07-28T06:20:26.454Z,84.7
2017-07-28T06:20:56.735Z,84.7
2017-07-28T06:21:27.247Z,83.8
2017-07-28T06:21:57.758Z,83.8
2017-07-28T06:23:23.135Z,83.3
2017-07-28T06:24:22.215Z,82.4
2017-07-28T06:25:21.301Z,81.8
2017-07-28T06:26:20.251Z,82.5
2017-07-28T06:27:19.841Z,82.1
2017-07-28T06:28:19.033Z,81.2
2017-07-28T06:29:18.726Z,80
2017-07-28T06:30:17.930Z,80
2017-07-28T06:31:16.997Z,79.5
2017-07-28T06:31:47.489Z,79.5
2017-07-28T06:32:17.997Z,78.8
2017-07-28T06:32:48.415Z,78.8
2017-07-28T06:33:18.924Z,78.6
2017-07-28T06:33:49.312Z,78.6
2017-07-28T06:35:14.060Z,77.3
2017-07-28T06:36:13.150Z,77.1
2017-07-28T06:37:12.736Z,77.2
2017-07-28T06:38:11.818Z,76.9
2017-07-28T06:39:11.001Z,76.9
2017-07-28T06:40:10.706Z,76.9
2017-07-28T06:41:09.779Z,75.1
2017-07-28T06:42:08.968Z,74.4
2017-07-28T06:43:08.170Z,73.5
2017-07-28T06:44:07.250Z,74
2017-07-28T06:45:06.960Z,73.9
2017-07-28T06:46:05.809Z,72.8
2017-07-28T06:47:05.511Z,73.6
2017-07-28T06:48:04.473Z,72.7
2017-07-28T06:49:04.049Z,73.9
2017-07-28T06:50:03.253Z,73.7
2017-07-28T06:51:02.480Z,73
2017-07-28T06:51:32.935Z,73
2017-07-28T06:52:03.327Z,71.6
2017-07-28T06:53:01.020Z,72.1
2017-07-28T06:53:59.994Z,71.4
2017-07-28T06:54:59.704Z,71.5
2017-07-28T06:55:58.768Z,71.5
2017-07-28T06:56:58.348Z,71.5
2017-07-28T06:57:57.426Z,71.5
2017-07-28T06:58:56.500Z,69.6
2017-07-28T06:59:55.689Z,69.8
2017-07-28T07:00:55.390Z,68.8
2017-07-28T07:01:54.598Z,68.1
2017-07-28T07:02:53.797Z,68.9
2017-07-28T07:03:52.878Z,68.4
2017-07-28T07:04:52.063Z,66.9
2017-07-28T07:05:51.640Z,68.5
2017-07-28T07:06:50.833Z,66.8
2017-07-28T07:07:49.918Z,67.3
2017-07-28T07:08:49.376Z,66.8
2017-07-28T07:09:48.349Z,68.7
2017-07-28T07:10:47.919Z,67.6
2017-07-28T07:11:47.384Z,68.3
2017-07-28T07:12:46.457Z,66.4
2017-07-28T07:13:16.617Z,66.4
2017-07-28T07:14:45.281Z,66.6
2017-07-28T07:15:44.473Z,66.5
2017-07-28T07:16:43.674Z,66.2
2017-07-28T07:17:42.753Z,64.8
2017-07-28T07:18:41.971Z,66.4
2017-07-28T07:19:41.559Z,67.3
2017-07-28T07:20:40.513Z,66
2017-07-28T07:21:40.095Z,65.8
2017-07-28T07:22:39.175Z,63.1
2017-07-28T07:23:38.264Z,64.6
2017-07-28T07:24:37.851Z,64.3
2017-07-28T07:25:37.061Z,64.5
2017-07-28T07:26:36.652Z,62.5
2017-07-28T07:27:35.856Z,59.8
2017-07-28T07:28:34.824Z,59.5
2017-07-28T07:29:05.359Z,59.5
2017-07-28T07:29:35.628Z,59.5
2017-07-28T07:30:32.951Z,59.7
2017-07-28T07:31:32.666Z,59.7
2017-07-28T07:32:31.905Z,57.4
2017-07-28T07:34:30.879Z,57.8
2017-07-28T07:35:29.948Z,58.3
2017-07-28T07:36:29.401Z,60.3
2017-07-28T07:37:28.366Z,57.1
2017-07-28T07:38:27.447Z,57.3
2017-07-28T07:39:27.009Z,56.8
2017-07-28T07:39:57.158Z,56.8
2017-07-28T07:40:28.055Z,56.8
2017-07-28T07:41:25.616Z,55.7
2017-07-28T07:42:24.834Z,54.7
2017-07-28T07:43:24.419Z,56.3
2017-07-28T07:44:23.384Z,57.1
2017-07-28T07:46:21.729Z,55
2017-07-28T07:47:21.316Z,54.8
2017-07-28T07:48:20.501Z,54.8
2017-07-28T07:49:19.593Z,54.8
2017-07-28T07:50:19.292Z,54.4
2017-07-28T07:51:18.487Z,55.7
2017-07-28T07:52:17.693Z,54.2
2017-07-28T07:53:16.912Z,54.8
2017-07-28T07:54:15.987Z,54.2
2017-07-28T07:55:15.708Z,56
2017-07-28T07:56:14.925Z,54.3
2017-07-28T07:57:14.012Z,55
2017-07-28T07:58:13.592Z,54.3
2017-07-28T07:58:44.109Z,54.3
2017-07-28T07:59:14.498Z,55.2
2017-07-28T07:59:45.018Z,55.2
2017-07-28T08:02:10.678Z,55
2017-07-28T08:03:09.865Z,55.1
2017-07-28T08:04:09.056Z,53.4
2017-07-28T08:06:07.642Z,54.3
2017-07-28T08:07:07.213Z,52.4
2017-07-28T08:08:06.165Z,53.4
2017-07-28T08:09:05.422Z,53.6
2017-07-28T08:10:04.616Z,52.7
2017-07-28T08:11:04.322Z,55.1
2017-07-28T08:13:02.910Z,54
2017-07-28T08:15:01.500Z,54
2017-07-28T08:16:00.690Z,51.4
2017-07-28T08:16:59.895Z,52.4
2017-07-28T08:17:59.104Z,53.6
2017-07-28T08:18:58.180Z,52.7
2017-07-28T08:19:57.761Z,51.8
2017-07-28T08:20:56.635Z,50.2
2017-07-28T08:21:27.648Z,50.2
2017-07-28T08:21:57.920Z,51.5
2017-07-28T08:22:28.440Z,51.5
2017-07-28T08:23:54.697Z,49.4
2017-07-28T08:24:54.272Z,49.4
2017-07-28T08:25:53.353Z,49.1
2017-07-28T08:26:53.046Z,49.8
2017-07-28T08:28:51.633Z,48.6
2017-07-28T08:29:50.717Z,48.9
2017-07-28T08:30:49.919Z,50.5
2017-07-28T08:31:49.516Z,50.7
2017-07-28T08:32:48.596Z,51
2017-07-28T08:33:47.683Z,49.6
2017-07-28T08:34:47.283Z,51.7
2017-07-28T08:35:46.494Z,51.7
2017-07-28T08:36:45.574Z,51.4
2017-07-28T08:37:45.283Z,49.5
2017-07-28T08:38:44.477Z,49.9
2017-07-28T08:39:43.668Z,49.9
2017-07-28T08:40:14.052Z,49.9
2017-07-28T08:40:44.320Z,49.9
2017-07-28T08:41:42.400Z,48.9
2017-07-28T08:42:41.586Z,50.3
2017-07-28T08:43:41.050Z,49.3
2017-07-28T08:44:40.130Z,47.4
2017-07-28T08:45:39.709Z,47.5
2017-07-28T08:46:38.910Z,46.4
2017-07-28T08:47:37.991Z,46.9
2017-07-28T08:48:37.566Z,47.2
2017-07-28T08:49:36.526Z,49.3
2017-07-28T08:50:36.233Z,49
2017-07-28T08:51:06.735Z,49
2017-07-28T08:51:37.248Z,48.4
2017-07-28T08:52:07.749Z,48.4
2017-07-28T08:52:38.025Z,49.3
2017-07-28T08:53:08.541Z,49.3
2017-07-28T08:54:33.401Z,48
2017-07-28T08:55:32.607Z,46.7
2017-07-28T08:56:31.574Z,46.7
2017-07-28T08:57:31.150Z,46.7
2017-07-28T08:58:30.239Z,48.2
2017-07-28T08:59:29.692Z,47.3
2017-07-28T09:00:29.266Z,47
2017-07-28T09:01:28.223Z,47.5
2017-07-28T09:02:27.915Z,47.4
2017-07-28T09:03:26.892Z,45.4
2017-07-28T09:04:26.362Z,47.7
2017-07-28T09:05:25.566Z,48
2017-07-28T09:06:25.151Z,48.5
2017-07-28T09:07:24.227Z,48.6
2017-07-28T09:08:23.425Z,46.6
2017-07-28T09:09:23.009Z,47.5
2017-07-28T09:10:22.081Z,46
2017-07-28T09:11:21.779Z,44.7
2017-07-28T09:12:20.979Z,45.2
2017-07-28T09:13:20.172Z,47.3
2017-07-28T09:14:19.370Z,47.3
2017-07-28T09:15:18.955Z,44.6
2017-07-28T09:16:18.179Z,44.7
2017-07-28T09:17:17.286Z,42.4
2017-07-28T09:18:17.003Z,43.6
2017-07-28T09:19:16.205Z,43.5
2017-07-28T09:20:15.292Z,45.2
2017-07-28T09:21:14.737Z,45.1
2017-07-28T09:22:13.581Z,45
2017-07-28T09:23:13.169Z,44.8
2017-07-28T09:23:43.552Z,44.8
2017-07-28T09:24:13.941Z,44.8
2017-07-28T09:25:12.019Z,46
2017-07-28T09:26:11.225Z,46.4
2017-07-28T09:27:10.805Z,47.2
2017-07-28T09:28:09.887Z,46.6
2017-07-28T09:29:09.363Z,47.2
2017-07-28T09:30:08.438Z,47.9
2017-07-28T09:31:08.012Z,47.9
2017-07-28T09:32:07.084Z,47.9
2017-07-28T09:33:06.810Z,47.9
2017-07-28T09:34:06.018Z,49.5
2017-07-28T09:35:05.211Z,49
2017-07-28T09:36:04.414Z,49.8
2017-07-28T09:37:03.876Z,49.8
2017-07-28T09:38:03.077Z,49.8
2017-07-28T09:40:01.669Z,51
2017-07-28T09:41:01.374Z,51.8
2017-07-28T09:42:00.568Z,49.9
2017-07-28T09:42:59.636Z,50.2
2017-07-28T09:43:59.237Z,50.1
2017-07-28T09:44:58.313Z,50.7
2017-07-28T09:45:57.770Z,51
2017-07-28T09:46:56.969Z,50.4
2017-07-28T09:47:56.320Z,50.4
2017-07-28T09:48:26.714Z,50.4
2017-07-28T09:48:57.232Z,50.4
2017-07-28T09:49:55.303Z,50.3
2017-07-28T09:50:54.505Z,51.4
2017-07-28T09:51:53.709Z,51.5
2017-07-28T09:52:53.283Z,50.8
2017-07-28T09:53:52.476Z,50.8
2017-07-28T09:54:51.942Z,52.7
2017-07-28T09:55:50.911Z,51.8
2017-07-28T09:56:50.616Z,52.1
2017-07-28T09:57:49.696Z,52.1
2017-07-28T09:58:49.285Z,51.7
2017-07-28T09:59:19.780Z,51.7
2017-07-28T09:59:50.286Z,51.4
2017-07-28T10:00:20.697Z,51.4
2017-07-28T10:00:50.848Z,50.6
2017-07-28T10:01:21.361Z,50.6
2017-07-28T10:01:51.859Z,50.3
2017-07-28T10:02:22.380Z,50.3
2017-07-28T10:02:52.877Z,50.6
2017-07-28T10:03:46.030Z,50.4
2017-07-28T10:04:45.232Z,49.5
2017-07-28T10:05:44.421Z,49.5
2017-07-28T10:06:43.887Z,49.5
2017-07-28T10:07:43.088Z,50.3
2017-07-28T10:08:42.295Z,48.7
2017-07-28T10:09:41.995Z,50.6
2017-07-28T10:10:40.839Z,49.2
2017-07-28T10:11:40.522Z,50.1
2017-07-28T10:12:39.727Z,50.4
2017-07-28T10:13:39.315Z,50.8
2017-07-28T10:14:38.507Z,50.6
2017-07-28T10:15:37.970Z,51.1
2017-07-28T10:16:37.044Z,51.3
2017-07-28T10:17:36.643Z,50.8
2017-07-28T10:18:35.839Z,51.9
2017-07-28T10:19:05.992Z,51.9
2017-07-28T10:20:34.754Z,53.1
2017-07-28T10:21:33.958Z,52.6
2017-07-28T10:22:33.033Z,53.7
2017-07-28T10:23:32.615Z,53.7
2017-07-28T10:24:31.688Z,53.6
2017-07-28T10:25:31.377Z,54.1
2017-07-28T10:26:30.204Z,54
2017-07-28T10:27:30.051Z,57
2017-07-28T10:28:29.295Z,59.4
2017-07-28T10:29:28.385Z,62.9
2017-07-28T10:30:27.970Z,64.4
2017-07-28T10:31:27.168Z,67.2
2017-07-28T10:31:57.692Z,67.2
2017-07-28T10:32:28.208Z,67.2
2017-07-28T10:32:59.286Z,67.2
2017-07-28T10:34:25.164Z,68.9
2017-07-28T10:35:24.240Z,69.2
2017-07-28T10:36:23.696Z,70.2
2017-07-28T10:37:23.148Z,70
2017-07-28T10:38:22.849Z,70.9
2017-07-28T10:39:22.035Z,69.6
2017-07-28T10:40:21.000Z,69.6
2017-07-28T10:40:51.498Z,69.6
2017-07-28T10:41:21.781Z,69.6
2017-07-28T10:42:19.976Z,71.6
2017-07-28T10:43:19.178Z,72.1
2017-07-28T10:44:18.254Z,72.1
2017-07-28T10:45:17.827Z,71
2017-07-28T10:46:17.015Z,70.6
2017-07-28T10:47:16.593Z,69.9
2017-07-28T10:48:15.809Z,71
2017-07-28T10:49:15.006Z,69.8
2017-07-28T10:50:14.474Z,69
2017-07-28T10:51:13.659Z,69.9
2017-07-28T10:52:13.360Z,69.2
2017-07-28T10:53:12.559Z,68.6
2017-07-28T10:54:11.781Z,68.6
2017-07-28T10:55:10.734Z,68.6
2017-07-28T10:56:10.431Z,66.9
2017-07-28T10:57:09.626Z,65.9
2017-07-28T10:58:09.321Z,65.9
2017-07-28T10:59:08.401Z,65.9
2017-07-28T11:00:07.847Z,65.9
2017-07-28T11:01:06.934Z,65.6
2017-07-28T11:02:06.398Z,64.3
2017-07-28T11:03:05.481Z,63.8
2017-07-28T11:04:05.189Z,62.9
2017-07-28T11:05:04.403Z,60.4
2017-07-28T11:06:03.611Z,59.2
2017-07-28T11:07:03.180Z,61.1
2017-07-28T11:08:02.633Z,60.9
2017-07-28T11:09:01.709Z,59.3
2017-07-28T11:10:01.068Z,59.9
2017-07-28T11:11:00.428Z,58.8
2017-07-28T11:12:00.125Z,60.2
2017-07-28T11:12:30.507Z,60.2
2017-07-28T11:13:00.906Z,56.4
2017-07-28T11:13:31.180Z,56.4
2017-07-28T11:14:01.566Z,56.7
2017-07-28T11:14:58.125Z,57.4
2017-07-28T11:15:57.195Z,57.4
2017-07-28T11:16:56.433Z,55.9
2017-07-28T11:17:56.018Z,56.1
2017-07-28T11:18:55.105Z,58.6
2017-07-28T11:19:54.679Z,57.6
2017-07-28T11:20:53.749Z,55.5
2017-07-28T11:21:53.454Z,56.7
2017-07-28T11:22:52.646Z,55.7
2017-07-28T11:23:52.124Z,54.4
2017-07-28T11:24:51.200Z,52.8
2017-07-28T11:25:50.788Z,52.9
2017-07-28T11:26:49.984Z,50.1
2017-07-28T11:27:49.786Z,51.2
2017-07-28T11:28:48.978Z,49.3
2017-07-28T11:29:48.177Z,50
2017-07-28T11:30:47.743Z,48.4
2017-07-28T11:31:46.927Z,48.6
2017-07-28T11:32:46.139Z,48.6
2017-07-28T11:33:45.840Z,48.6
2017-07-28T11:34:45.192Z,46.3
2017-07-28T11:35:44.401Z,46.6
2017-07-28T11:36:44.101Z,48.5
2017-07-28T11:37:43.284Z,47.4
2017-07-28T11:38:42.141Z,49.1
2017-07-28T11:39:42.107Z,49.4
2017-07-28T11:40:41.560Z,48.5
2017-07-28T11:41:40.750Z,49
2017-07-28T11:42:40.332Z,48.6
2017-07-28T11:43:39.541Z,46.6
2017-07-28T11:44:38.502Z,48.1
2017-07-28T11:45:38.190Z,46.5
2017-07-28T11:46:37.794Z,46.1
2017-07-28T11:47:36.989Z,44.6
2017-07-28T11:48:36.338Z,44.9
2017-07-28T11:49:35.539Z,45.6
2017-07-28T11:51:34.519Z,45.6
2017-07-28T11:52:33.712Z,45.6
2017-07-28T11:53:33.284Z,46.8
2017-07-28T11:55:31.755Z,45.6
2017-07-28T11:56:31.337Z,45.7
2017-07-28T11:57:30.683Z,47.4
2017-07-28T11:58:30.373Z,46.6
2017-07-28T11:59:29.452Z,46.9
2017-07-28T12:00:29.161Z,46.5
2017-07-28T12:01:28.237Z,47.8
2017-07-28T12:02:27.938Z,46.3
2017-07-28T12:03:27.117Z,46.8
2017-07-28T12:04:26.343Z,48.1
2017-07-28T12:05:26.056Z,47.8
2017-07-28T12:06:25.141Z,47.1
2017-07-28T12:07:24.705Z,46.9
2017-07-28T12:09:23.278Z,46.6
2017-07-28T12:10:22.978Z,47
2017-07-28T12:11:22.165Z,46.2
2017-07-28T12:12:21.859Z,47.2
2017-07-28T12:13:20.940Z,46.7
2017-07-28T12:14:20.656Z,47.8
2017-07-28T12:15:19.859Z,48.4
2017-07-28T12:16:18.943Z,47.3
2017-07-28T12:17:18.522Z,46.8
2017-07-28T12:18:18.219Z,46.3
2017-07-28T12:19:17.306Z,47.4
2017-07-28T12:19:47.802Z,47.4
2017-07-28T12:20:18.196Z,46.4
2017-07-28T12:20:48.694Z,46.4
2017-07-28T12:21:18.960Z,45.8
2017-07-28T12:21:49.745Z,45.8
2017-07-28T12:22:20.015Z,46.5
2017-07-28T12:22:50.535Z,46.5
2017-07-28T12:23:21.043Z,46.5
2017-07-28T12:23:51.549Z,46.5
2017-07-28T12:25:13.758Z,46.1
2017-07-28T12:27:12.747Z,46.1
2017-07-28T12:28:11.950Z,47.5
2017-07-28T12:29:11.149Z,47
2017-07-28T12:30:10.614Z,45.9
2017-07-28T12:31:10.203Z,46.2
2017-07-28T12:32:09.279Z,44.8
2017-07-28T12:33:08.974Z,46.6
2017-07-28T12:34:07.936Z,47.2
2017-07-28T12:35:08.043Z,44.6
2017-07-28T12:36:06.767Z,44.5
2017-07-28T12:37:06.470Z,45.8
2017-07-28T12:38:05.927Z,45.1
2017-07-28T12:39:05.845Z,45
2017-07-28T12:40:04.809Z,44.6
2017-07-28T12:40:35.194Z,44.6
2017-07-28T12:41:05.574Z,44.7
2017-07-28T12:42:03.538Z,45.1
2017-07-28T12:43:03.109Z,44.5
2017-07-28T12:45:01.694Z,44.5
2017-07-28T12:46:01.159Z,43.4
2017-07-28T12:47:00.640Z,44.9
2017-07-28T12:47:59.724Z,44.1
2017-07-28T12:48:59.304Z,45.4
2017-07-28T12:49:59.008Z,45.5
2017-07-28T12:50:58.214Z,45.2
2017-07-28T12:51:57.794Z,44.3
2017-07-28T12:52:56.994Z,45.3
2017-07-28T12:53:27.383Z,45.3
2017-07-28T12:54:55.784Z,45.3
2017-07-28T12:55:55.488Z,44
2017-07-28T12:56:54.679Z,43.4
2017-07-28T12:57:54.373Z,43.6
2017-07-28T12:58:53.569Z,42.9
2017-07-28T12:59:52.752Z,43.2
2017-07-28T13:00:52.104Z,42.1
2017-07-28T13:01:51.682Z,44.2
2017-07-28T13:02:51.141Z,44.2
2017-07-28T13:03:50.850Z,43.9
2017-07-28T13:04:49.807Z,44
2017-07-28T13:05:49.266Z,43.4
2017-07-28T13:06:48.971Z,43.9
2017-07-28T13:08:47.554Z,43.3
2017-07-28T13:09:47.141Z,43.8
2017-07-28T13:10:46.730Z,44.3
2017-07-28T13:11:45.676Z,43
2017-07-28T13:12:45.382Z,44.2
2017-07-28T13:13:44.961Z,42.9
2017-07-28T13:14:44.030Z,43.8
2017-07-28T13:15:43.746Z,43.6
2017-07-28T13:16:42.933Z,43.2
2017-07-28T13:17:42.530Z,44.7
2017-07-28T13:18:41.755Z,44.2
2017-07-28T13:19:41.457Z,42.6
2017-07-28T13:20:40.535Z,42.6
2017-07-28T13:21:40.134Z,42.6
2017-07-28T13:22:39.724Z,43.3
2017-07-28T13:23:38.923Z,44.3
2017-07-28T13:24:38.510Z,44
2017-07-28T13:25:37.474Z,43.4
2017-07-28T13:26:37.068Z,43.4
2017-07-28T13:27:36.661Z,43.9
2017-07-28T13:28:35.740Z,43.5
2017-07-28T13:29:35.321Z,43.3